createdAt,value
2023-01-29T00:02:46.708Z,11.30
2023-01-29T00:07:54.404Z,9.77
2023-01-29T00:12:59.480Z,10.63
2023-01-29T00:18:04.536Z,10.57
2023-01-29T00:23:12.057Z,10.63
2023-01-29T00:28:18.103Z,11.47
2023-01-29T00:33:23.109Z,9.70
2023-01-29T00:38:30.618Z,10.27
2023-01-29T00:43:47.971Z,9.17
2023-01-29T00:48:52.844Z,9.37
2023-01-29T00:54:00.669Z,8.97
2023-01-29T00:59:06.168Z,8.97
2023-01-29T01:04:13.729Z,9.50
2023-01-29T01:09:36.620Z,9.03
2023-01-29T01:14:43.319Z,7.97
2023-01-29T01:19:48.183Z,8.83
2023-01-29T01:24:55.714Z,7.97
2023-01-29T01:30:00.804Z,7.20
2023-01-29T01:35:05.783Z,7.20
2023-01-29T01:40:18.771Z,7.03
2023-01-29T01:45:29.211Z,9.13
2023-01-29T01:50:40.007Z,7.37
2023-01-29T01:55:51.953Z,8.17
2023-01-29T02:00:57.597Z,7.60
2023-01-29T02:06:16.113Z,8.30
2023-01-29T02:11:24.194Z,8.60
2023-01-29T02:16:29.192Z,8.43
2023-01-29T02:21:51.726Z,8.17
2023-01-29T02:27:11.862Z,7.90
2023-01-29T02:32:28.117Z,8.60
2023-01-29T02:37:39.169Z,8.97
2023-01-29T02:42:55.237Z,9.97
2023-01-29T02:48:05.030Z,9.13
2023-01-29T02:53:16.396Z,8.83
2023-01-29T02:58:28.007Z,9.23
2023-01-29T03:03:39.735Z,10.00
2023-01-29T03:08:52.440Z,9.13
2023-01-29T03:14:02.721Z,9.33
2023-01-29T03:19:16.398Z,9.50
2023-01-29T03:24:38.639Z,10.00
2023-01-29T03:29:57.859Z,9.40
2023-01-29T03:35:21.073Z,9.40
2023-01-29T03:40:26.320Z,9.10
2023-01-29T03:45:36.735Z,8.70
2023-01-29T03:50:55.145Z,10.17
2023-01-29T03:56:07.327Z,8.87
2023-01-29T04:01:17.835Z,9.67
2023-01-29T04:06:30.167Z,10.53
2023-01-29T04:11:46.082Z,9.90
2023-01-29T04:16:55.296Z,10.17
2023-01-29T04:22:16.726Z,10.30
2023-01-29T04:27:30.449Z,10.07
2023-01-29T04:32:49.914Z,10.87
2023-01-29T04:38:07.882Z,10.23
2023-01-29T04:43:19.196Z,11.10
2023-01-29T04:48:28.104Z,10.17
2023-01-29T04:53:44.261Z,11.13
2023-01-29T04:58:54.504Z,10.67
2023-01-29T05:04:01.276Z,10.10
2023-01-29T05:09:10.505Z,10.67
2023-01-29T05:14:18.276Z,10.40
2023-01-29T05:19:23.266Z,11.60
2023-01-29T05:24:30.905Z,10.30
2023-01-29T05:29:36.022Z,10.73
2023-01-29T05:34:41.050Z,11.23
2023-01-29T05:39:48.738Z,10.90
2023-01-29T05:44:53.625Z,11.50
2023-01-29T05:49:58.808Z,11.20
2023-01-29T05:55:06.635Z,10.87
2023-01-29T06:00:13.367Z,10.07
2023-01-29T06:05:18.609Z,10.03
2023-01-29T06:10:26.175Z,11.53
2023-01-29T06:15:31.572Z,11.07
2023-01-29T06:20:36.559Z,11.20
2023-01-29T06:25:44.157Z,12.03
2023-01-29T06:30:49.173Z,11.60
2023-01-29T06:35:59.010Z,11.43
2023-01-29T06:41:12.228Z,11.60
2023-01-29T06:46:17.298Z,11.63
2023-01-29T06:51:23.072Z,11.33
2023-01-29T06:56:30.577Z,11.27
2023-01-29T07:01:36.957Z,10.73
2023-01-29T07:06:42.809Z,9.90
2023-01-29T07:11:50.508Z,11.93
2023-01-29T07:16:55.480Z,9.47
2023-01-29T07:22:02.632Z,11.40
2023-01-29T07:27:10.353Z,10.70
2023-01-29T07:32:16.130Z,10.37
2023-01-29T07:37:21.180Z,10.07
2023-01-29T07:42:28.793Z,10.90
2023-01-29T07:47:33.862Z,10.67
2023-01-29T07:52:39.099Z,11.10
2023-01-29T07:57:48.374Z,11.50
2023-01-29T08:02:53.521Z,10.93
2023-01-29T08:08:06.601Z,11.27
2023-01-29T08:13:14.494Z,10.93
2023-01-29T08:18:19.726Z,10.23
2023-01-29T08:23:24.711Z,9.73
2023-01-29T08:28:32.330Z,11.10
2023-01-29T08:33:39.352Z,11.10
2023-01-29T08:38:45.453Z,11.63
2023-01-29T08:43:53.409Z,11.37
2023-01-29T08:48:58.886Z,11.60
2023-01-29T08:54:03.858Z,12.23
2023-01-29T08:59:13.009Z,11.97
2023-01-29T09:04:18.006Z,10.47
2023-01-29T09:09:23.048Z,11.43
2023-01-29T09:14:30.683Z,9.90
2023-01-29T09:19:35.656Z,11.73
2023-01-29T09:24:43.200Z,11.80
2023-01-29T09:29:50.786Z,10.40
2023-01-29T09:34:56.104Z,11.70
2023-01-29T09:40:01.091Z,12.30
2023-01-29T09:45:16.166Z,10.63
2023-01-29T09:50:41.096Z,13.37
2023-01-29T09:55:52.726Z,10.23
2023-01-29T10:01:09.344Z,11.93
2023-01-29T10:06:28.334Z,11.63
2023-01-29T10:11:42.281Z,13.67
2023-01-29T10:17:02.584Z,11.57
2023-01-29T10:22:22.889Z,11.87
2023-01-29T10:27:35.157Z,11.93
2023-01-29T10:32:46.978Z,10.93
2023-01-29T10:37:55.988Z,11.20
2023-01-29T10:43:06.969Z,11.10
2023-01-29T10:48:44.052Z,11.03
2023-01-29T10:54:01.504Z,10.93
2023-01-29T10:59:11.999Z,12.23
2023-01-29T11:04:19.892Z,11.50
2023-01-29T11:09:34.568Z,12.50
2023-01-29T11:14:47.845Z,16.63
2023-01-29T11:19:57.844Z,12.67
2023-01-29T11:25:19.241Z,12.27
2023-01-29T11:30:27.332Z,12.07
2023-01-29T11:35:36.557Z,11.63
2023-01-29T11:40:43.465Z,13.43
2023-01-29T11:45:49.878Z,12.20
2023-01-29T11:51:00.815Z,13.13
2023-01-29T11:56:25.400Z,12.23
2023-01-29T12:01:36.230Z,10.87
2023-01-29T12:06:48.931Z,11.13
2023-01-29T12:11:54.432Z,11.10
2023-01-29T12:17:10.546Z,10.83
2023-01-29T12:22:23.435Z,10.07
2023-01-29T12:27:36.736Z,11.23
2023-01-29T12:32:48.550Z,10.33
2023-01-29T12:38:05.398Z,9.83
2023-01-29T12:43:19.409Z,10.23
2023-01-29T12:48:29.021Z,10.67
2023-01-29T12:53:43.970Z,9.97
2023-01-29T12:58:53.649Z,10.60
2023-01-29T13:04:02.527Z,10.07
2023-01-29T13:09:20.283Z,11.37
2023-01-29T13:14:29.311Z,10.93
2023-01-29T13:19:39.415Z,10.87
2023-01-29T13:25:02.387Z,11.43
2023-01-29T13:30:10.513Z,11.23
2023-01-29T13:35:20.130Z,11.53
2023-01-29T13:40:30.803Z,10.73
2023-01-29T13:45:39.617Z,10.67
2023-01-29T13:50:46.609Z,10.30
2023-01-29T13:55:54.217Z,11.33
2023-01-29T14:01:02.976Z,10.30
2023-01-29T14:06:08.808Z,9.93
2023-01-29T14:11:38.762Z,9.67
2023-01-29T14:16:45.059Z,10.40
2023-01-29T14:21:53.796Z,10.27
2023-01-29T14:27:05.700Z,10.40
2023-01-29T14:32:22.401Z,10.10
2023-01-29T14:37:35.019Z,8.93
2023-01-29T14:42:52.965Z,10.50
2023-01-29T14:48:06.353Z,9.83
2023-01-29T14:53:23.194Z,10.47
2023-01-29T14:58:45.385Z,9.50
2023-01-29T15:03:56.745Z,10.50
2023-01-29T15:09:14.068Z,11.53
2023-01-29T15:14:35.064Z,11.10
2023-01-29T15:19:45.482Z,10.43
2023-01-29T15:25:07.483Z,10.77
2023-01-29T15:30:21.899Z,10.80
2023-01-29T15:35:32.449Z,10.50
2023-01-29T15:40:38.608Z,10.40
2023-01-29T15:45:48.640Z,10.30
2023-01-29T15:51:00.159Z,10.50
2023-01-29T15:56:11.812Z,9.83
2023-01-29T16:01:20.268Z,11.33
2023-01-29T16:06:27.386Z,11.17
2023-01-29T16:11:32.707Z,10.07
2023-01-29T16:16:40.450Z,9.97
2023-01-29T16:21:51.068Z,8.97
2023-01-29T16:27:09.618Z,9.60
2023-01-29T16:32:18.446Z,10.73
2023-01-29T16:37:31.182Z,9.70
2023-01-29T16:42:39.175Z,8.93
2023-01-29T16:47:48.485Z,8.83
2023-01-29T16:53:01.537Z,8.97
2023-01-29T16:58:12.879Z,9.17
2023-01-29T17:03:22.663Z,11.13
2023-01-29T17:08:31.748Z,10.27
2023-01-29T17:13:42.834Z,9.30
2023-01-29T17:18:53.073Z,9.03
2023-01-29T17:24:06.636Z,10.00
2023-01-29T17:29:17.011Z,10.57
2023-01-29T17:34:24.763Z,8.90
2023-01-29T17:39:30.081Z,8.27
2023-01-29T17:44:35.113Z,8.70
2023-01-29T17:49:42.723Z,7.67
2023-01-29T17:54:50.242Z,9.27
2023-01-29T17:59:57.363Z,8.50
2023-01-29T18:05:05.457Z,8.03
2023-01-29T18:10:16.874Z,8.23
2023-01-29T18:15:23.339Z,7.83
2023-01-29T18:20:32.085Z,9.10
2023-01-29T18:25:38.166Z,8.33
2023-01-29T18:30:45.692Z,9.50
2023-01-29T18:35:58.301Z,8.27
2023-01-29T18:41:10.676Z,10.03
2023-01-29T18:46:16.005Z,8.40
2023-01-29T18:51:25.081Z,7.97
2023-01-29T18:56:30.251Z,9.47
2023-01-29T19:01:39.558Z,8.23
2023-01-29T19:06:47.989Z,9.03
2023-01-29T19:11:55.388Z,8.03
2023-01-29T19:17:05.124Z,8.70
2023-01-29T19:22:13.285Z,8.87
2023-01-29T19:27:20.268Z,8.23
2023-01-29T19:32:25.865Z,9.03
2023-01-29T19:37:34.412Z,9.00
2023-01-29T19:42:41.584Z,8.17
2023-01-29T19:47:48.132Z,10.30
2023-01-29T19:52:59.482Z,8.27
2023-01-29T19:58:06.908Z,9.10
2023-01-29T20:03:15.730Z,8.27
2023-01-29T20:08:25.069Z,9.37
2023-01-29T20:13:31.192Z,8.60
2023-01-29T20:18:39.988Z,8.50
2023-01-29T20:23:53.142Z,9.13
2023-01-29T20:28:58.821Z,9.57
2023-01-29T20:34:05.704Z,8.37
2023-01-29T20:39:14.465Z,9.27
2023-01-29T20:44:20.165Z,8.90
2023-01-29T20:49:31.174Z,8.63
2023-01-29T20:54:40.466Z,8.17
2023-01-29T20:59:46.255Z,9.30
2023-01-29T21:04:56.488Z,8.37
2023-01-29T21:10:05.019Z,9.17
2023-01-29T21:15:12.239Z,9.90
2023-01-29T21:20:20.350Z,8.90
2023-01-29T21:25:28.373Z,8.73
2023-01-29T21:30:36.653Z,8.37
2023-01-29T21:35:41.861Z,9.20
2023-01-29T21:40:49.565Z,9.00
2023-01-29T21:45:59.182Z,8.50
2023-01-29T21:51:07.229Z,8.83
2023-01-29T21:56:19.855Z,9.17
2023-01-29T22:01:38.198Z,8.97
2023-01-29T22:06:43.990Z,9.47
2023-01-29T22:11:51.570Z,9.87
2023-01-29T22:16:56.540Z,9.70
2023-01-29T22:22:01.606Z,9.33
2023-01-29T22:27:09.650Z,10.73
2023-01-29T22:32:14.685Z,10.17
2023-01-29T22:37:19.654Z,10.90
2023-01-29T22:42:27.957Z,10.20
2023-01-29T22:47:35.207Z,9.60
2023-01-29T22:52:42.870Z,9.83
2023-01-29T22:57:51.666Z,10.83
2023-01-29T23:02:56.691Z,10.80
2023-01-29T23:08:01.758Z,10.13
2023-01-29T23:13:09.342Z,9.23
2023-01-29T23:18:14.387Z,9.90
2023-01-29T23:23:19.367Z,10.33
2023-01-29T23:28:27.578Z,10.47
2023-01-29T23:33:32.507Z,10.57
2023-01-29T23:38:39.103Z,9.97
2023-01-29T23:43:46.724Z,9.77
2023-01-29T23:48:51.694Z,9.87
2023-01-29T23:53:57.026Z,9.77
2023-01-29T23:59:04.616Z,9.87
